Nearby METAR Reports

 

NZCH - Christchurch Int, New Zealand
Distance from station: W 10km
Updated: 14 Dec 2018 17:00
Overcast
Overcast
 Wind from ENE
Wind: ENE 19 km/h
Temperature: 18°C
Dew Point: 14°C
Humidity: 78%
Barometer: 1018 hPa
Clouds: Overcast
Visibility: 10 km
Cloud details: Partly cloudy 457 m
Mostly cloudy 640 m
Overcast 975 m
2018/12/14 04:00 NZCH 140400Z AUTO 07010KT 9999 SCT015/// BKN021/// OVC032/// 18/14 Q1018 NOSIG